Time;durP1;ratioP1;P1;durP2;ratioP2;P2;SDS_P1;SDS_P2;PMS_P1;PMS_P2;Temp;Humidity;BMP_temperature;BMP_pressure;BME280_temperature;BME280_humidity;BME280_pressure;Samples;Min_cycle;Max_cycle;Signal;HPM_P1;HPM_P2
2024/01/10 00:02:21;;;;;;;1.00;1.00;;;;;;;-4.53;100.00;98071.91;4881239;29;20190;-79
2024/01/10 00:04:48;;;;;;;0.80;0.80;;;;;;;-4.50;100.00;98074.19;4881562;29;20057;-78
2024/01/10 00:07:15;;;;;;;0.95;0.95;;;;;;;-4.45;100.00;98082.41;4895561;29;20048;-78
2024/01/10 00:09:43;;;;;;;1.00;1.00;;;;;;;-4.36;100.00;98070.81;4881482;29;20109;-78
2024/01/10 00:12:10;;;;;;;0.90;0.90;;;;;;;-4.34;100.00;98073.28;4881340;29;20056;-78
2024/01/10 00:14:38;;;;;;;0.90;0.90;;;;;;;-4.32;100.00;98065.22;4881116;29;20495;-78
2024/01/10 00:17:05;;;;;;;1.15;1.10;;;;;;;-4.29;100.00;98060.41;4881047;29;20172;-78
2024/01/10 00:19:32;;;;;;;0.88;0.88;;;;;;;-4.21;100.00;98051.63;4879858;29;20059;-79
2024/01/10 00:22:00;;;;;;;1.20;1.15;;;;;;;-4.19;100.00;98045.19;4864506;29;20537;-79
2024/01/10 00:24:29;;;;;;;0.95;0.95;;;;;;;-4.17;100.00;98043.22;4881002;29;20144;-79
2024/01/10 00:26:56;;;;;;;1.13;1.13;;;;;;;-4.16;100.00;98046.66;4881135;29;20049;-78
2024/01/10 00:29:23;;;;;;;1.10;1.10;;;;;;;-4.10;100.00;98046.00;4880944;29;20053;-80
2024/01/10 00:31:52;;;;;;;1.10;1.10;;;;;;;-4.02;100.00;98038.03;4860029;29;20065;-79
2024/01/10 00:34:22;;;;;;;1.02;1.02;;;;;;;-4.04;100.00;98040.00;4878473;29;20057;-79
2024/01/10 00:36:50;;;;;;;1.25;1.20;;;;;;;-3.98;100.00;98038.47;4887864;29;20077;-79
2024/01/10 00:39:17;;;;;;;1.20;1.20;;;;;;;-3.95;100.00;98033.69;4878550;29;20530;-79
2024/01/10 00:41:48;;;;;;;1.10;1.10;;;;;;;-3.89;100.00;98023.44;4875864;29;20077;-78
2024/01/10 00:44:16;;;;;;;1.02;1.02;;;;;;;-3.86;100.00;98025.72;4861356;29;20081;-78
2024/01/10 00:46:43;;;;;;;1.05;1.05;;;;;;;-3.81;100.00;98018.91;4874409;29;20050;-79
2024/01/10 00:49:13;;;;;;;1.30;1.20;;;;;;;-3.75;100.00;98022.66;4861336;29;20053;-78
2024/01/10 00:51:40;;;;;;;1.05;1.05;;;;;;;-3.68;100.00;98034.13;4861013;29;20056;-78
2024/01/10 00:54:08;;;;;;;0.90;0.90;;;;;;;-3.65;100.00;98017.13;4859788;29;20060;-78
2024/01/10 00:56:36;;;;;;;1.02;1.02;;;;;;;-3.58;100.00;98024.16;4860776;29;20547;-78
2024/01/10 00:59:03;;;;;;;1.00;1.00;;;;;;;-3.54;100.00;98040.47;4871060;29;20056;-78
2024/01/10 01:01:31;;;;;;;1.10;1.10;;;;;;;-3.51;100.00;98034.81;4879419;29;20065;-78
2024/01/10 01:03:59;;;;;;;1.23;1.20;;;;;;;-3.46;100.00;98039.56;4880492;29;20064;-79
2024/01/10 01:06:31;;;;;;;1.00;1.00;;;;;;;-3.45;100.00;98035.94;4880018;29;20161;-79
2024/01/10 01:08:58;;;;;;;1.10;1.10;;;;;;;-3.39;100.00;98033.41;4879307;29;20095;-80
2024/01/10 01:11:25;;;;;;;1.08;1.08;;;;;;;-3.34;100.00;98041.59;4880139;29;20076;-79
2024/01/10 01:13:53;;;;;;;1.00;1.00;;;;;;;-3.27;100.00;98034.59;4880306;29;20065;-77
2024/01/10 01:16:21;;;;;;;0.95;0.95;;;;;;;-3.25;100.00;98050.25;4879832;29;20125;-79
2024/01/10 01:18:49;;;;;;;1.02;1.02;;;;;;;-3.22;100.00;98041.97;4880116;29;20147;-79
2024/01/10 01:21:44;;;;;;;1.10;1.10;;;;;;;-3.16;100.00;98054.47;4879891;29;20081;-78
2024/01/10 01:24:14;;;;;;;1.10;1.10;;;;;;;-3.10;100.00;98053.72;4863243;29;20061;-79
2024/01/10 01:26:41;;;;;;;1.02;1.02;;;;;;;-3.08;100.00;98061.47;4880113;29;20423;-78
2024/01/10 01:29:08;;;;;;;1.30;1.20;;;;;;;-3.01;100.00;98045.72;4880025;29;20116;-79
2024/01/10 01:31:37;;;;;;;1.00;1.00;;;;;;;-2.99;100.00;98047.16;4880238;29;20049;-79
2024/01/10 01:34:05;;;;;;;1.10;1.10;;;;;;;-2.98;100.00;98055.94;4879904;29;20052;-79
2024/01/10 01:36:41;;;;;;;1.00;1.00;;;;;;;-2.93;100.00;98064.94;4877775;29;20060;-78
2024/01/10 01:39:08;;;;;;;1.25;1.20;;;;;;;-2.97;100.00;98055.72;4879516;29;20052;-79
2024/01/10 01:41:36;;;;;;;0.80;0.80;;;;;;;-2.95;100.00;98072.22;4879384;29;20140;-77
2024/01/10 01:44:03;;;;;;;1.00;1.00;;;;;;;-2.93;100.00;98053.56;4879672;29;20048;-78
2024/01/10 01:46:32;;;;;;;1.00;1.00;;;;;;;-2.94;100.00;98078.31;4879845;29;20053;-79
2024/01/10 01:49:03;;;;;;;0.90;0.90;;;;;;;-2.94;100.00;98078.31;4878727;29;20415;-79
2024/01/10 01:51:33;;;;;;;0.80;0.80;;;;;;;-2.95;100.00;98079.31;4878280;29;20513;-78
2024/01/10 01:54:01;;;;;;;0.90;0.90;;;;;;;-3.00;100.00;98084.34;4878483;29;20101;-78
2024/01/10 01:56:28;;;;;;;0.93;0.93;;;;;;;-3.10;100.00;98097.78;4879201;29;20057;-79
2024/01/10 01:59:01;;;;;;;1.08;1.08;;;;;;;-3.15;100.00;98095.69;4878198;29;20099;-79
2024/01/10 02:01:28;;;;;;;1.10;1.10;;;;;;;-3.13;100.00;98116.63;4863098;29;20056;-78
2024/01/10 02:03:55;;;;;;;0.98;0.98;;;;;;;-3.08;100.00;98106.34;4879255;29;20531;-76
2024/01/10 02:06:23;;;;;;;1.05;1.05;;;;;;;-3.02;100.00;98126.75;4878156;29;20101;-77
2024/01/10 02:08:52;;;;;;;1.00;1.00;;;;;;;-3.02;100.00;98120.66;4879349;29;20136;-78
2024/01/10 02:11:20;;;;;;;1.05;1.05;;;;;;;-3.01;100.00;98138.09;4846977;29;20057;-77
2024/01/10 02:13:48;;;;;;;1.00;1.00;;;;;;;-2.99;100.00;98136.94;4878050;29;20148;-78
2024/01/10 02:16:15;;;;;;;0.90;0.90;;;;;;;-3.03;100.00;98148.06;4878610;29;20102;-78
2024/01/10 02:18:44;;;;;;;1.10;1.10;;;;;;;-3.06;100.00;98168.53;4862386;29;20053;-78
2024/01/10 02:21:11;;;;;;;1.10;1.10;;;;;;;-3.09;100.00;98165.41;4877990;29;20065;-79
2024/01/10 02:23:39;;;;;;;1.10;1.10;;;;;;;-3.18;100.00;98167.31;4879121;29;20048;-79
2024/01/10 02:26:06;;;;;;;0.98;0.98;;;;;;;-3.28;100.00;98167.53;4862607;29;20053;-79
2024/01/10 02:28:33;;;;;;;0.95;0.95;;;;;;;-3.45;100.00;98179.19;4879093;29;20049;-78
2024/01/10 02:31:01;;;;;;;1.35;1.25;;;;;;;-3.50;100.00;98187.63;4877892;29;20064;-78
2024/01/10 02:33:29;;;;;;;1.10;1.10;;;;;;;-3.52;100.00;98186.16;4879672;29;20049;-79
2024/01/10 02:35:56;;;;;;;1.02;1.02;;;;;;;-3.49;100.00;98206.94;4879788;29;20053;-78
2024/01/10 02:38:23;;;;;;;1.08;1.08;;;;;;;-3.45;100.00;98215.31;4863061;29;20118;-79
2024/01/10 02:40:51;;;;;;;1.33;1.23;;;;;;;-3.51;100.00;98225.56;4878924;29;20503;-78
2024/01/10 02:43:19;;;;;;;1.20;1.17;;;;;;;-3.51;100.00;98241.41;4879224;29;20418;-79
2024/01/10 02:45:46;;;;;;;1.10;1.10;;;;;;;-3.59;100.00;98224.81;4877824;29;20510;-78
2024/01/10 02:48:13;;;;;;;1.00;1.00;;;;;;;-3.76;100.00;98253.88;4877931;29;20049;-79
2024/01/10 02:50:42;;;;;;;0.90;0.90;;;;;;;-3.90;100.00;98261.69;4878709;29;20168;-79
2024/01/10 02:53:10;;;;;;;1.00;1.00;;;;;;;-4.00;100.00;98270.63;4879159;29;20144;-77
2024/01/10 02:55:38;;;;;;;1.10;1.10;;;;;;;-4.03;100.00;98273.56;4878924;29;20053;-78
2024/01/10 02:58:05;;;;;;;1.08;1.08;;;;;;;-4.06;100.00;98278.38;4877622;29;20511;-79
2024/01/10 03:00:33;;;;;;;1.10;1.10;;;;;;;-4.13;100.00;98257.13;4877393;29;20052;-79
2024/01/10 03:03:03;;;;;;;1.13;1.13;;;;;;;-4.21;100.00;98278.25;4878616;29;20457;-78
2024/01/10 03:05:33;;;;;;;1.17;1.17;;;;;;;-4.37;99.44;98295.72;4877484;29;20111;-78
2024/01/10 03:08:02;;;;;;;1.10;1.10;;;;;;;-4.47;98.45;98310.88;4877454;29;20041;-78
2024/01/10 03:10:29;;;;;;;1.10;1.10;;;;;;;-4.54;98.01;98314.34;4877495;29;20045;-79
2024/01/10 03:12:57;;;;;;;1.38;1.27;;;;;;;-4.58;96.73;98316.50;4878766;29;20080;-78
2024/01/10 03:15:28;;;;;;;1.10;1.10;;;;;;;-4.61;94.67;98327.34;4878391;29;20582;-78
2024/01/10 03:18:54;;;;;;;1.02;1.02;;;;;;;-4.67;93.79;98352.53;4851002;29;20520;-79
2024/01/10 03:21:26;;;;;;;0.90;0.90;;;;;;;-4.70;92.57;98354.66;4828699;29;20083;-78
2024/01/10 03:23:59;;;;;;;1.10;1.10;;;;;;;-4.73;92.13;98360.28;4842836;29;20092;-80
2024/01/10 03:26:30;;;;;;;1.30;1.20;;;;;;;-4.79;91.44;98373.06;4857960;29;20396;-79
2024/01/10 03:28:58;;;;;;;0.98;0.98;;;;;;;-4.80;91.42;98381.97;4861207;29;20133;-79
2024/01/10 03:31:30;;;;;;;1.10;1.10;;;;;;;-4.87;91.29;98375.69;4861107;29;20054;-79
2024/01/10 03:33:58;;;;;;;1.10;1.10;;;;;;;-4.99;89.02;98398.03;4861245;29;20148;-79
2024/01/10 03:36:26;;;;;;;1.10;1.10;;;;;;;-5.15;87.74;98398.00;4845764;29;20551;-78
2024/01/10 03:38:54;;;;;;;1.00;1.00;;;;;;;-5.27;87.73;98416.69;4830177;29;20049;-77
2024/01/10 03:41:23;;;;;;;0.82;0.82;;;;;;;-5.36;87.06;98419.47;4845497;29;20053;-79
2024/01/10 03:43:50;;;;;;;0.82;0.82;;;;;;;-5.39;87.25;98430.25;4860772;29;20053;-79
2024/01/10 03:46:18;;;;;;;1.08;1.08;;;;;;;-5.44;86.83;98428.13;4860547;29;20125;-79
2024/01/10 03:48:48;;;;;;;1.00;1.00;;;;;;;-5.50;86.59;98452.41;4843706;29;20053;-79
2024/01/10 03:51:17;;;;;;;0.98;0.98;;;;;;;-5.54;87.22;98453.72;4860574;29;20045;-79
2024/01/10 03:53:49;;;;;;;1.35;1.25;;;;;;;-5.58;87.22;98465.50;4845547;29;20050;-83
2024/01/10 03:56:17;;;;;;;0.90;0.90;;;;;;;-5.59;87.38;98480.47;4860572;29;20110;-81
2024/01/10 03:58:44;;;;;;;0.95;0.95;;;;;;;-5.64;87.53;98492.44;4860857;29;20478;-80
2024/01/10 04:01:13;;;;;;;1.00;1.00;;;;;;;-5.62;87.76;98500.97;4860173;29;20057;-81
2024/01/10 04:03:44;;;;;;;1.08;1.08;;;;;;;-5.63;87.38;98504.59;4830222;29;20049;-79
2024/01/10 04:06:11;;;;;;;0.98;0.98;;;;;;;-5.69;87.32;98527.88;4860126;29;20057;-80
2024/01/10 04:08:38;;;;;;;1.05;1.05;;;;;;;-5.73;87.43;98534.41;4859912;29;20634;-79
2024/01/10 04:11:06;;;;;;;1.00;1.00;;;;;;;-5.78;87.09;98544.56;4859824;29;20054;-81
2024/01/10 04:13:33;;;;;;;1.00;1.00;;;;;;;-5.84;86.82;98549.63;4860009;29;20615;-80
2024/01/10 04:16:10;;;;;;;1.10;1.10;;;;;;;-5.89;86.71;98569.28;4876595;29;20064;-81
2024/01/10 04:18:37;;;;;;;1.08;1.08;;;;;;;-6.02;86.70;98573.28;4879356;29;20173;-80
2024/01/10 04:21:06;;;;;;;0.95;0.95;;;;;;;-6.12;86.11;98582.06;4879671;29;20057;-80
2024/01/10 04:23:42;;;;;;;1.08;1.08;;;;;;;-6.25;85.92;98581.59;4846340;29;20061;-80
2024/01/10 04:26:09;;;;;;;0.85;0.85;;;;;;;-6.36;85.43;98587.03;4860455;29;20046;-80
2024/01/10 04:28:39;;;;;;;0.88;0.88;;;;;;;-6.45;85.01;98608.94;4845058;29;20085;-80
2024/01/10 04:31:07;;;;;;;1.05;1.05;;;;;;;-6.52;85.47;98623.63;4859660;29;20223;-80
2024/01/10 04:33:34;;;;;;;1.08;1.08;;;;;;;-6.59;85.94;98634.69;4859861;29;20144;-81
2024/01/10 04:36:02;;;;;;;0.93;0.93;;;;;;;-6.66;86.45;98644.13;4861633;29;20057;-81
2024/01/10 04:38:32;;;;;;;1.10;1.10;;;;;;;-6.88;86.77;98661.03;4859267;29;20065;-80
2024/01/10 04:40:59;;;;;;;0.93;0.93;;;;;;;-7.03;86.66;98663.28;4859168;29;20156;-80
2024/01/10 04:43:26;;;;;;;0.98;0.98;;;;;;;-7.19;86.61;98668.25;4865533;29;20084;-79
2024/01/10 04:45:57;;;;;;;1.30;1.20;;;;;;;-7.32;86.41;98683.47;4850322;29;20164;-80
2024/01/10 04:51:23;;;;;;;0.90;0.90;;;;;;;-7.52;86.50;98703.59;4858260;29;20061;-80
2024/01/10 04:53:55;;;;;;;1.02;1.02;;;;;;;-7.61;86.22;98715.75;4866039;29;20048;-80
2024/01/10 04:56:23;;;;;;;0.93;0.93;;;;;;;-7.67;86.09;98732.00;4891175;29;20072;-81
2024/01/10 04:58:50;;;;;;;0.90;0.90;;;;;;;-7.81;86.06;98738.47;4896382;29;20081;-81
2024/01/10 05:01:18;;;;;;;0.98;0.98;;;;;;;-7.89;85.75;98741.75;4878862;29;20430;-81
2024/01/10 05:03:45;;;;;;;0.90;0.90;;;;;;;-8.00;85.60;98749.72;4891486;29;20058;-81
2024/01/10 05:06:13;;;;;;;1.00;1.00;;;;;;;-8.11;85.32;98768.16;4884925;29;20048;-82
2024/01/10 05:08:40;;;;;;;0.80;0.80;;;;;;;-8.25;84.81;98779.81;4889354;29;20120;-79
2024/01/10 05:11:10;;;;;;;0.90;0.90;;;;;;;-8.36;84.59;98785.13;4887655;29;20112;-80
2024/01/10 05:13:39;;;;;;;1.00;1.00;;;;;;;-8.48;84.77;98794.88;4874866;29;20056;-80
2024/01/10 05:16:07;;;;;;;0.80;0.80;;;;;;;-8.56;84.68;98805.13;4889308;29;20044;-80
2024/01/10 05:18:34;;;;;;;1.00;1.00;;;;;;;-8.62;84.24;98810.91;4886699;29;20044;-82
2024/01/10 05:21:04;;;;;;;1.00;1.00;;;;;;;-8.70;84.34;98821.19;4876325;29;20136;-81
2024/01/10 05:23:32;;;;;;;0.90;0.90;;;;;;;-8.83;84.63;98826.59;4869001;29;20049;-80
2024/01/10 05:26:01;;;;;;;1.10;1.10;;;;;;;-8.93;84.51;98839.59;4877664;29;20411;-79
2024/01/10 05:28:34;;;;;;;1.00;1.00;;;;;;;-9.00;84.65;98846.25;4890718;29;20060;-79
2024/01/10 05:31:01;;;;;;;0.93;0.93;;;;;;;-9.02;84.89;98849.00;4879084;29;20494;-79
2024/01/10 05:33:29;;;;;;;0.90;0.90;;;;;;;-9.10;84.92;98855.81;4871270;29;20052;-79
2024/01/10 05:35:58;;;;;;;0.90;0.90;;;;;;;-9.16;84.70;98871.03;4879287;29;20072;-80
2024/01/10 05:38:25;;;;;;;0.93;0.93;;;;;;;-9.23;84.63;98882.91;4880522;29;20052;-81
2024/01/10 05:40:53;;;;;;;0.90;0.90;;;;;;;-9.29;84.56;98899.09;4877447;29;20064;-80
2024/01/10 05:43:21;;;;;;;1.08;1.08;;;;;;;-9.34;84.60;98896.03;4876603;29;20077;-79
2024/01/10 05:45:48;;;;;;;0.98;0.98;;;;;;;-9.37;84.68;98901.47;4877845;29;20081;-80
2024/01/10 05:48:17;;;;;;;0.85;0.85;;;;;;;-9.39;84.83;98908.63;4877744;29;20057;-79
2024/01/10 05:50:45;;;;;;;1.00;1.00;;;;;;;-9.38;84.86;98921.56;4876961;29;20059;-80
2024/01/10 05:53:16;;;;;;;0.95;0.95;;;;;;;-9.42;84.77;98922.75;4878771;29;20049;-79
2024/01/10 05:55:46;;;;;;;0.90;0.90;;;;;;;-9.54;84.78;98935.91;4877502;29;20053;-79
2024/01/10 05:58:14;;;;;;;1.15;1.13;;;;;;;-9.51;84.99;98939.16;4893262;29;20120;-80
2024/01/10 06:00:41;;;;;;;0.90;0.90;;;;;;;-9.53;85.03;98959.34;4893676;29;20460;-80
2024/01/10 06:03:11;;;;;;;1.00;1.00;;;;;;;-9.63;84.87;98955.75;4878147;29;20146;-79
2024/01/10 06:06:11;;;;;;;0.80;0.80;;;;;;;-9.78;84.72;98967.38;4878033;29;20052;-79
2024/01/10 06:08:47;;;;;;;0.90;0.90;;;;;;;-9.81;84.79;98976.28;4876821;29;20068;-79
2024/01/10 06:11:18;;;;;;;1.00;1.00;;;;;;;-9.83;84.36;98988.63;4876900;29;20049;-79
2024/01/10 06:13:49;;;;;;;1.10;1.10;;;;;;;-9.91;84.47;98996.22;4876455;29;20075;-79
2024/01/10 06:16:30;;;;;;;1.00;1.00;;;;;;;-9.91;84.30;98997.03;4876279;29;20061;-79
2024/01/10 06:19:28;;;;;;;1.17;1.17;;;;;;;-9.82;83.99;99022.47;4865064;29;20060;-79
2024/01/10 06:21:55;;;;;;;1.17;1.17;;;;;;;-9.80;84.22;99027.56;4876777;29;20625;-79
2024/01/10 06:24:25;;;;;;;0.95;0.95;;;;;;;-9.81;83.92;99031.97;4861426;29;20123;-79
2024/01/10 06:26:52;;;;;;;1.20;1.17;;;;;;;-9.79;83.68;99054.53;4876824;29;20507;-79
2024/01/10 06:29:20;;;;;;;0.80;0.80;;;;;;;-9.85;83.67;99045.34;4876988;29;20076;-78
2024/01/10 06:31:49;;;;;;;1.33;1.23;;;;;;;-9.84;83.85;99050.47;4876593;29;20053;-79
2024/01/10 06:34:16;;;;;;;1.08;1.08;;;;;;;-9.80;83.70;99056.28;4876693;29;20149;-79
2024/01/10 06:36:44;;;;;;;1.13;1.13;;;;;;;-9.74;83.65;99055.03;4864487;29;20059;-79
2024/01/10 06:39:15;;;;;;;1.40;1.30;;;;;;;-9.84;83.56;99068.75;4865519;29;20049;-80
2024/01/10 06:41:44;;;;;;;1.10;1.10;;;;;;;-9.85;83.48;99074.09;4862314;29;20507;-79
2024/01/10 06:44:14;;;;;;;1.20;1.20;;;;;;;-9.85;83.56;99072.34;4877213;29;20063;-79
2024/01/10 06:46:41;;;;;;;1.10;1.10;;;;;;;-9.82;83.34;99084.31;4877027;29;20077;-79
2024/01/10 06:49:08;;;;;;;1.20;1.20;;;;;;;-9.83;83.43;99093.09;4895263;29;20537;-79
2024/01/10 06:51:36;;;;;;;1.10;1.10;;;;;;;-9.84;83.16;99099.28;4879760;29;20057;-80
2024/01/10 06:54:04;;;;;;;1.00;1.00;;;;;;;-9.87;83.02;99102.13;4895205;29;20059;-79
2024/01/10 06:56:34;;;;;;;1.20;1.20;;;;;;;-9.84;82.85;99113.16;4879830;29;20196;-79
2024/01/10 06:59:03;;;;;;;1.20;1.20;;;;;;;-9.86;82.67;99115.03;4877197;29;20545;-80
2024/01/10 07:01:33;;;;;;;0.90;0.90;;;;;;;-9.81;82.48;99127.78;4859034;29;20056;-81
2024/01/10 07:04:01;;;;;;;1.17;1.17;;;;;;;-9.88;81.96;99124.75;4837697;29;20399;-79
2024/01/10 07:06:28;;;;;;;0.90;0.90;;;;;;;-9.92;81.96;99123.34;4908596;29;20546;-81
2024/01/10 07:08:58;;;;;;;1.20;1.20;;;;;;;-9.89;81.93;99125.72;4898615;29;20457;-78
2024/01/10 07:11:28;;;;;;;1.10;1.10;;;;;;;-9.83;81.92;99134.88;4898640;29;20048;-80
2024/01/10 07:13:56;;;;;;;1.23;1.20;;;;;;;-9.78;81.86;99139.78;4906370;29;20208;-79
2024/01/10 07:16:23;;;;;;;1.65;1.55;;;;;;;-9.74;81.46;99144.66;4901588;29;20128;-80
2024/01/10 07:18:51;;;;;;;1.10;1.10;;;;;;;-9.74;81.49;99152.50;4884755;29;20111;-78
2024/01/10 07:21:19;;;;;;;1.30;1.20;;;;;;;-9.77;81.60;99150.13;4875250;29;20064;-81
2024/01/10 07:23:47;;;;;;;1.40;1.30;;;;;;;-9.71;81.36;99162.72;4862136;29;20109;-80
2024/01/10 07:26:16;;;;;;;1.13;1.13;;;;;;;-9.72;81.13;99168.91;4861267;29;20049;-81
2024/01/10 07:28:44;;;;;;;1.13;1.13;;;;;;;-9.66;81.29;99170.22;4859906;29;20053;-80
2024/01/10 07:31:15;;;;;;;1.20;1.20;;;;;;;-9.56;81.07;99178.22;4860656;29;20042;-80
2024/01/10 07:33:43;;;;;;;1.20;1.20;;;;;;;-9.54;80.83;99177.16;4877401;29;20061;-80
2024/01/10 07:36:11;;;;;;;0.90;0.90;;;;;;;-9.57;80.56;99185.22;4879033;29;20108;-79
2024/01/10 07:38:41;;;;;;;1.40;1.30;;;;;;;-9.56;80.44;99193.91;4880582;29;20045;-80
2024/01/10 07:41:08;;;;;;;1.10;1.10;;;;;;;-9.61;80.05;99187.22;4881555;29;20060;-80
2024/01/10 07:43:36;;;;;;;1.17;1.17;;;;;;;-9.55;80.00;99193.78;4881152;29;20152;-80
2024/01/10 07:46:04;;;;;;;1.50;1.40;;;;;;;-9.36;79.62;99203.72;4880819;29;20450;-80
2024/01/10 07:48:31;;;;;;;1.27;1.20;;;;;;;-8.96;78.61;99206.00;4880017;29;20049;-80
2024/01/10 07:51:00;;;;;;;1.42;1.33;;;;;;;-8.45;78.00;99207.34;4837759;29;20052;-80
2024/01/10 07:53:28;;;;;;;1.40;1.30;;;;;;;-8.04;76.46;99203.25;4872985;29;20044;-82
2024/01/10 07:55:55;;;;;;;1.38;1.30;;;;;;;-7.71;74.66;99207.56;4873621;29;20117;-80
2024/01/10 07:58:23;;;;;;;1.42;1.33;;;;;;;-7.76;73.25;99213.19;4898337;29;20074;-80
2024/01/10 08:00:51;;;;;;;1.52;1.42;;;;;;;-7.66;73.25;99211.50;4871747;29;20057;-79
2024/01/10 08:03:26;;;;;;;1.23;1.20;;;;;;;-7.24;72.52;99218.59;4859655;29;20045;-80
2024/01/10 08:05:54;;;;;;;1.50;1.40;;;;;;;-6.94;71.23;99209.97;4887104;29;20492;-80
2024/01/10 08:08:22;;;;;;;1.15;1.15;;;;;;;-6.82;70.26;99216.00;4876768;29;20422;-80
2024/01/10 08:10:49;;;;;;;1.10;1.10;;;;;;;-6.58;69.69;99224.44;4871508;29;20439;-80
2024/01/10 08:13:18;;;;;;;1.00;1.00;;;;;;;-6.36;68.53;99223.44;4897399;29;20100;-81
2024/01/10 08:15:45;;;;;;;1.23;1.20;;;;;;;-6.02;68.50;99217.91;4891526;29;20048;-81
2024/01/10 08:18:14;;;;;;;1.30;1.20;;;;;;;-5.54;67.22;99235.56;4881754;29;20045;-82
2024/01/10 08:20:41;;;;;;;1.00;1.00;;;;;;;-5.35;65.96;99229.50;4872046;29;20045;-80
2024/01/10 08:23:08;;;;;;;1.30;1.20;;;;;;;-5.18;64.15;99235.06;4895304;29;20060;-81
2024/01/10 08:25:36;;;;;;;1.10;1.10;;;;;;;-4.98;63.90;99228.81;4867435;29;20056;-81
2024/01/10 08:28:05;;;;;;;1.10;1.10;;;;;;;-5.00;63.41;99238.63;4895512;29;20128;-82
2024/01/10 08:30:32;;;;;;;1.10;1.10;;;;;;;-5.09;63.45;99234.19;4883239;29;20049;-81
2024/01/10 08:33:00;;;;;;;1.30;1.20;;;;;;;-4.77;62.88;99222.53;4868251;29;20187;-81
2024/01/10 08:35:36;;;;;;;0.93;0.93;;;;;;;-4.68;61.76;99230.44;4876817;29;20148;-82
2024/01/10 08:38:07;;;;;;;1.42;1.33;;;;;;;-4.58;61.43;99225.16;4875581;29;20132;-82
2024/01/10 08:40:36;;;;;;;1.20;1.20;;;;;;;-4.55;60.65;99242.47;4887767;29;20057;-81
2024/01/10 08:43:06;;;;;;;1.55;1.45;;;;;;;-4.28;60.38;99247.81;4887250;29;20477;-81
2024/01/10 08:45:36;;;;;;;1.20;1.17;;;;;;;-4.03;59.13;99242.84;4848609;29;20053;-81
2024/01/10 08:48:19;;;;;;;1.13;1.13;;;;;;;-4.15;58.58;99244.84;4847733;29;20049;-81
2024/01/10 08:50:55;;;;;;;1.00;1.00;;;;;;;-4.02;58.36;99240.06;4859004;29;20054;-80
2024/01/10 08:53:25;;;;;;;1.10;1.10;;;;;;;-3.80;57.88;99248.56;4859412;29;20144;-81
2024/01/10 08:55:53;;;;;;;1.13;1.13;;;;;;;-3.37;57.87;99244.41;4848305;29;20049;-80
2024/01/10 08:58:24;;;;;;;1.42;1.33;;;;;;;-3.43;56.47;99245.84;4846894;29;20439;-79
2024/01/10 09:00:52;;;;;;;1.27;1.25;;;;;;;-3.85;56.84;99246.34;4840882;29;20063;-80
2024/01/10 09:03:20;;;;;;;1.30;1.20;;;;;;;-3.72;56.53;99261.88;4832521;29;20601;-80
2024/01/10 09:05:47;;;;;;;1.20;1.20;;;;;;;-3.64;55.91;99254.03;4852803;29;20164;-81
2024/01/10 09:08:31;;;;;;;1.40;1.30;;;;;;;-3.31;56.02;99244.66;4855711;29;20053;-82
2024/01/10 09:10:58;;;;;;;1.55;1.45;;;;;;;-2.99;55.52;99247.75;4861177;29;20098;-81
2024/01/10 09:13:27;;;;;;;1.15;1.15;;;;;;;-2.63;54.55;99252.03;4823377;29;20073;-80
2024/01/10 09:15:54;;;;;;;1.20;1.20;;;;;;;-2.69;54.40;99244.69;4867242;29;20060;-81
2024/01/10 09:18:22;;;;;;;1.60;1.50;;;;;;;-2.27;53.46;99265.16;4863758;29;20057;-81
2024/01/10 09:20:49;;;;;;;1.50;1.40;;;;;;;-2.16;52.91;99276.44;4870961;29;20072;-82
2024/01/10 09:23:18;;;;;;;1.60;1.50;;;;;;;-2.00;52.28;99277.38;4882999;29;20529;-81
2024/01/10 09:25:46;;;;;;;1.70;1.60;;;;;;;-1.87;51.34;99284.06;4875913;29;20055;-81
2024/01/10 09:28:13;;;;;;;1.80;1.70;;;;;;;-2.03;52.25;99284.78;4871416;29;20525;-81
2024/01/10 09:30:41;;;;;;;1.90;1.80;;;;;;;-2.03;50.69;99280.31;4878378;29;20061;-82
2024/01/10 09:33:09;;;;;;;1.08;1.08;;;;;;;-2.72;51.98;99284.66;4879860;29;20135;-81
2024/01/10 09:35:37;;;;;;;1.40;1.30;;;;;;;-3.96;53.77;99276.41;4884748;29;20080;-82
2024/01/10 09:38:05;;;;;;;1.15;1.15;;;;;;;-5.24;55.97;99289.88;4882476;29;20064;-82
2024/01/10 09:40:32;;;;;;;0.95;0.95;;;;;;;-6.30;57.80;99297.41;4894984;29;20553;-82
2024/01/10 09:43:01;;;;;;;1.00;1.00;;;;;;;-6.93;60.02;99298.25;4889001;29;20161;-82
2024/01/10 09:45:31;;;;;;;1.40;1.30;;;;;;;-7.15;61.62;99299.16;4883414;29;20051;-81
2024/01/10 09:47:59;;;;;;;0.90;0.90;;;;;;;-7.44;62.69;99312.03;4881057;29;20053;-83
2024/01/10 09:50:27;;;;;;;1.35;1.25;;;;;;;-7.55;63.70;99310.22;4861614;29;20052;-80
2024/01/10 09:53:07;;;;;;;1.00;1.00;;;;;;;-7.48;64.24;99313.22;4858452;29;20087;-81
2024/01/10 09:55:39;;;;;;;1.10;1.10;;;;;;;-7.70;64.18;99320.13;4828047;29;20059;-80
2024/01/10 09:58:08;;;;;;;1.00;1.00;;;;;;;-7.70;64.94;99308.81;4873181;29;20056;-80
2024/01/10 10:00:42;;;;;;;0.95;0.95;;;;;;;-7.84;65.19;99309.91;4860172;29;20052;-81
2024/01/10 10:03:28;;;;;;;1.30;1.20;;;;;;;-8.22;65.12;99313.72;4873887;29;20410;-81
2024/01/10 10:05:57;;;;;;;1.05;1.05;;;;;;;-8.33;65.37;99314.56;4875149;29;20518;-79
2024/01/10 10:08:25;;;;;;;1.40;1.30;;;;;;;-8.36;65.88;99300.84;4891301;29;20143;-80
2024/01/10 10:10:52;;;;;;;0.90;0.90;;;;;;;-8.25;66.16;99310.47;4891967;29;20517;-80
2024/01/10 10:13:27;;;;;;;1.08;1.08;;;;;;;-8.25;66.17;99310.47;4892463;29;20386;-83
2024/01/10 10:16:02;;;;;;;1.00;1.00;;;;;;;-8.27;66.00;99299.31;4862707;29;20134;-80
2024/01/10 10:18:31;;;;;;;1.23;1.20;;;;;;;-8.06;65.62;99297.66;4879070;29;20250;-82
2024/01/10 10:21:11;;;;;;;1.00;1.00;;;;;;;-7.87;65.65;99302.31;4894595;29;20109;-81
2024/01/10 10:23:41;;;;;;;0.90;0.90;;;;;;;-7.66;65.29;99310.25;4895680;29;20056;-82
2024/01/10 10:26:19;;;;;;;1.10;1.10;;;;;;;-7.48;64.83;99308.78;4879910;29;20051;-81
2024/01/10 10:28:49;;;;;;;0.95;0.95;;;;;;;-7.48;65.04;99315.84;4879821;29;20116;-81
2024/01/10 10:31:20;;;;;;;1.10;1.10;;;;;;;-6.88;63.96;99309.22;4877104;29;20143;-81
2024/01/10 10:33:50;;;;;;;1.17;1.17;;;;;;;-7.26;63.87;99317.59;4879105;29;20052;-81
2024/01/10 10:36:21;;;;;;;1.20;1.20;;;;;;;-7.43;64.38;99314.50;4878690;29;20057;-81
2024/01/10 10:38:52;;;;;;;0.85;0.85;;;;;;;-7.51;64.34;99309.03;4878128;29;20491;-82
2024/01/10 10:41:19;;;;;;;1.02;1.02;;;;;;;-7.85;64.44;99303.84;4846924;29;20156;-82
2024/01/10 10:43:50;;;;;;;1.00;1.00;;;;;;;-7.89;64.92;99306.81;4879093;29;20100;-82
2024/01/10 10:46:17;;;;;;;0.95;0.95;;;;;;;-7.80;65.35;99307.88;4878985;29;20049;-81
2024/01/10 10:48:45;;;;;;;1.10;1.10;;;;;;;-7.80;65.30;99300.84;4878806;29;20045;-81
2024/01/10 10:51:19;;;;;;;1.10;1.10;;;;;;;-7.87;65.21;99315.41;4877486;29;20061;-81
2024/01/10 10:53:48;;;;;;;1.23;1.20;;;;;;;-8.18;65.43;99316.94;4878975;29;20415;-81
2024/01/10 10:56:16;;;;;;;1.00;1.00;;;;;;;-8.44;66.28;99317.16;4878580;29;20117;-81
2024/01/10 10:58:50;;;;;;;1.00;1.00;;;;;;;-8.51;66.96;99324.66;4846851;29;20065;-81
2024/01/10 11:01:18;;;;;;;1.00;1.00;;;;;;;-8.54;67.47;99318.81;4877428;29;20053;-81
2024/01/10 11:03:47;;;;;;;0.90;0.90;;;;;;;-8.49;67.24;99315.84;4877675;29;20105;-81
2024/01/10 11:06:17;;;;;;;1.00;1.00;;;;;;;-8.65;67.67;99313.56;4861881;29;20069;-81
2024/01/10 11:09:14;;;;;;;1.00;1.00;;;;;;;-8.66;67.90;99317.94;4847514;29;20055;-81
2024/01/10 11:11:57;;;;;;;0.95;0.95;;;;;;;-8.75;68.26;99322.09;4860051;29;20442;-81
2024/01/10 11:15:09;;;;;;;1.10;1.10;;;;;;;-8.70;68.27;99323.53;4832890;29;20059;-81
2024/01/10 11:18:52;;;;;;;0.93;0.93;;;;;;;-8.68;67.73;99316.38;4858565;29;20683;-81
2024/01/10 11:21:41;;;;;;;1.40;1.30;;;;;;;-8.36;67.30;99317.38;4845538;29;20053;-81
2024/01/10 11:24:09;;;;;;;1.40;1.30;;;;;;;-7.38;64.91;99323.81;4845495;29;20614;-81
2024/01/10 11:26:46;;;;;;;1.38;1.27;;;;;;;-6.36;62.44;99325.88;4816345;29;20059;-81
2024/01/10 11:29:15;;;;;;;0.90;0.90;;;;;;;-5.64;60.07;99323.31;4876757;29;20092;-81
2024/01/10 11:31:51;;;;;;;1.02;1.02;;;;;;;-6.79;60.72;99325.97;4876719;29;20080;-81
2024/01/10 11:34:25;;;;;;;1.08;1.08;;;;;;;-7.52;61.97;99328.38;4876414;29;20486;-81
2024/01/10 11:37:10;;;;;;;1.50;1.40;;;;;;;-6.43;62.16;99318.63;4830761;29;20060;-81
2024/01/10 11:39:58;;;;;;;0.98;0.98;;;;;;;-5.32;59.35;99320.47;4818175;29;20053;-81
2024/01/10 11:42:47;;;;;;;1.00;1.00;;;;;;;-6.66;60.49;99331.06;4860210;29;20137;-81
2024/01/10 11:45:36;;;;;;;1.67;1.58;;;;;;;-5.43;59.45;99331.94;4860219;29;20152;-81
2024/01/10 11:48:03;;;;;;;1.40;1.30;;;;;;;-4.66;58.14;99333.84;4846075;29;20089;-81
2024/01/10 11:50:31;;;;;;;1.40;1.30;;;;;;;-4.28;56.14;99326.03;4863889;29;20049;-82